createdAt,value
2023-07-04T03:02:19.012Z,98566.44
2023-07-04T03:03:23.421Z,98566.19
2023-07-04T03:04:27.254Z,98573.09
2023-07-04T03:05:29.966Z,98571.47
2023-07-04T03:06:32.747Z,98571.38
2023-07-04T03:07:34.523Z,98563.47
2023-07-04T03:08:37.321Z,98572.06
2023-07-04T03:09:40.063Z,98567.09
2023-07-04T03:10:44.801Z,98564.53
2023-07-04T03:11:46.540Z,98565.50
2023-07-04T03:12:49.249Z,98566.50
2023-07-04T03:13:51.660Z,98563.03
2023-07-04T03:14:54.538Z,98568.22
2023-07-04T03:15:56.643Z,98565.63
2023-07-04T03:17:00.185Z,98567.56
2023-07-04T03:18:06.987Z,98568.50
2023-07-04T03:19:11.932Z,98569.00
2023-07-04T03:20:13.892Z,98573.41
2023-07-04T03:21:19.478Z,98574.38
2023-07-04T03:22:21.317Z,98571.91
2023-07-04T03:23:24.803Z,98571.91
2023-07-04T03:24:26.891Z,98570.31
2023-07-04T03:25:30.484Z,98568.72
2023-07-04T03:26:35.568Z,98574.00
2023-07-04T03:27:41.859Z,98573.22
2023-07-04T03:28:46.487Z,98575.63
2023-07-04T03:29:48.349Z,98568.69
2023-07-04T03:30:51.557Z,98576.59
2023-07-04T03:31:53.569Z,98575.72
2023-07-04T03:32:57.137Z,98570.53
2023-07-04T03:34:01.911Z,98574.00
2023-07-04T03:35:04.200Z,98568.81
2023-07-04T03:36:08.120Z,98571.31
2023-07-04T03:37:10.764Z,98572.25
2023-07-04T03:38:12.581Z,98570.31
2023-07-04T03:39:15.249Z,98565.91
2023-07-04T03:40:17.039Z,98570.16
2023-07-04T03:41:19.766Z,98571.59
2023-07-04T03:42:21.470Z,98563.78
2023-07-04T03:43:24.658Z,98576.66
2023-07-04T03:44:26.460Z,98578.25
2023-07-04T03:45:29.193Z,98575.53
2023-07-04T03:46:31.068Z,98577.16
2023-07-04T03:47:33.969Z,98577.06
2023-07-04T03:48:35.780Z,98582.97
2023-07-04T03:49:39.862Z,98586.22
2023-07-04T03:50:41.882Z,98591.25
2023-07-04T03:51:47.802Z,98586.06
2023-07-04T03:52:50.255Z,98587.69
2023-07-04T03:53:52.991Z,98578.94
2023-07-04T03:54:54.822Z,98584.13
2023-07-04T03:55:57.548Z,98594.47
2023-07-04T03:56:59.276Z,98586.66
2023-07-04T03:58:03.173Z,98596.09
2023-07-04T03:59:04.972Z,98591.59
2023-07-04T04:00:10.977Z,98594.84
2023-07-04T04:01:25.682Z,98597.41
2023-07-04T04:02:28.354Z,98599.19
2023-07-04T04:03:30.427Z,98601.88
2023-07-04T04:04:40.960Z,98593.13
2023-07-04T04:05:44.973Z,98594.84
2023-07-04T04:06:50.000Z,98590.53
2023-07-04T04:07:51.788Z,98593.13
2023-07-04T04:08:54.403Z,98592.38
2023-07-04T04:09:56.057Z,98593.22
2023-07-04T04:10:58.894Z,98594.19
2023-07-04T04:12:00.707Z,98587.16
2023-07-04T04:13:03.381Z,98597.56
2023-07-04T04:14:05.027Z,98592.09
2023-07-04T04:15:08.736Z,98586.69
2023-07-04T04:16:10.546Z,98592.72
2023-07-04T04:17:14.208Z,98595.47
2023-07-04T04:18:15.887Z,98597.06
2023-07-04T04:19:18.550Z,98594.56
2023-07-04T04:20:20.299Z,98591.28
2023-07-04T04:21:24.386Z,98597.56
2023-07-04T04:22:26.156Z,98593.06
2023-07-04T04:23:28.818Z,98602.44
2023-07-04T04:24:31.469Z,98597.28
2023-07-04T04:25:39.077Z,98601.78
2023-07-04T04:26:41.516Z,98602.69
2023-07-04T04:27:47.059Z,98600.09
2023-07-04T04:28:49.367Z,98607.03
2023-07-04T04:29:52.200Z,98602.75
2023-07-04T04:30:54.225Z,98606.31
2023-07-04T04:31:57.272Z,98602.00
2023-07-04T04:32:59.141Z,98605.66
2023-07-04T04:34:01.861Z,98603.06
2023-07-04T04:35:04.511Z,98601.47
2023-07-04T04:36:07.429Z,98602.47
2023-07-04T04:37:10.549Z,98609.53
2023-07-04T04:38:15.781Z,98600.88
2023-07-04T04:39:19.439Z,98607.66
2023-07-04T04:40:21.267Z,98603.41
2023-07-04T04:41:24.040Z,98600.81
2023-07-04T04:42:25.708Z,98618.25
2023-07-04T04:43:29.203Z,98618.94
2023-07-04T04:44:31.026Z,98613.91
2023-07-04T04:45:33.749Z,98616.63
2023-07-04T04:46:35.936Z,98615.03
2023-07-04T04:47:40.108Z,98616.00
2023-07-04T04:48:42.394Z,98609.19
2023-07-04T04:49:45.078Z,98616.13
2023-07-04T04:50:47.568Z,98617.94
2023-07-04T04:51:53.168Z,98618.09
2023-07-04T04:52:58.719Z,98621.50
2023-07-04T04:54:03.381Z,98619.69
2023-07-04T04:55:06.648Z,98618.91
2023-07-04T04:56:10.116Z,98622.53
2023-07-04T04:57:13.197Z,98626.81
2023-07-04T04:58:15.867Z,98623.59
2023-07-04T04:59:17.605Z,98628.78
2023-07-04T05:00:21.752Z,98627.16
2023-07-04T05:50:00.391Z,98645.13
2023-07-04T05:51:04.191Z,98644.53
2023-07-04T05:52:07.621Z,98644.69
2023-07-04T05:53:09.339Z,98642.91
2023-07-04T05:54:11.940Z,98645.56
2023-07-04T05:55:13.637Z,98647.34
2023-07-04T05:56:18.929Z,98645.78
2023-07-04T05:57:20.639Z,98645.91
2023-07-04T05:58:23.278Z,98652.19
2023-07-04T05:59:25.254Z,98651.47
2023-07-04T06:00:27.916Z,98647.44
2023-07-04T06:01:33.631Z,98655.44
2023-07-04T06:02:36.346Z,98660.84
2023-07-04T06:03:38.470Z,98652.16
2023-07-04T06:04:41.332Z,98651.41
2023-07-04T06:05:44.885Z,98658.53
2023-07-04T06:06:52.492Z,98654.97
2023-07-04T06:07:54.211Z,98651.56
2023-07-04T06:08:58.761Z,98652.72
2023-07-04T06:10:03.461Z,98657.44
2023-07-04T06:11:07.382Z,98655.97
2023-07-04T06:12:09.198Z,98651.88
2023-07-04T06:13:11.931Z,98658.16
2023-07-04T06:14:17.657Z,98654.72
2023-07-04T06:15:19.375Z,98657.28
2023-07-04T06:16:22.434Z,98653.75
2023-07-04T06:17:24.763Z,98658.41
2023-07-04T06:18:28.331Z,98659.56
2023-07-04T06:19:30.067Z,98662.56
2023-07-04T06:20:32.792Z,98662.75
2023-07-04T06:21:43.865Z,98663.03
2023-07-04T06:22:47.467Z,98664.81
2023-07-04T06:23:50.296Z,98661.97
2023-07-04T06:24:53.385Z,98666.31
2023-07-04T06:25:57.485Z,98662.09
2023-07-04T06:27:00.271Z,98668.25
2023-07-04T06:28:02.236Z,98669.19
2023-07-04T06:29:05.590Z,98668.25
2023-07-04T06:30:09.831Z,98670.00
2023-07-04T06:31:15.775Z,98668.25
2023-07-04T06:32:17.412Z,98671.91
2023-07-04T06:33:20.072Z,98665.34
2023-07-04T06:34:21.786Z,98670.53
2023-07-04T06:35:24.495Z,98666.22
2023-07-04T06:36:26.260Z,98669.03
2023-07-04T06:37:30.297Z,98670.03
2023-07-04T06:38:33.203Z,98662.41
2023-07-04T06:39:35.916Z,98659.09
2023-07-04T06:40:38.469Z,98661.69
2023-07-04T06:41:41.678Z,98660.91
2023-07-04T06:42:44.409Z,98660.91
2023-07-04T06:43:48.599Z,98665.34
2023-07-04T06:44:50.592Z,98654.19
2023-07-04T06:45:53.701Z,98660.47
2023-07-04T06:46:55.474Z,98654.56
2023-07-04T06:47:58.190Z,98660.88
2023-07-04T06:48:59.964Z,98652.19
2023-07-04T06:50:02.734Z,98657.56
2023-07-04T06:51:07.606Z,98660.28
2023-07-04T06:52:09.281Z,98661.16
2023-07-04T06:53:13.695Z,98668.03
2023-07-04T06:54:15.697Z,98671.53
2023-07-04T06:55:18.487Z,98668.78
2023-07-04T06:56:22.324Z,98661.94
2023-07-04T06:57:25.005Z,98675.78
2023-07-04T06:58:26.721Z,98673.94
2023-07-04T06:59:29.360Z,98669.41
2023-07-04T07:00:31.309Z,98678.13
2023-07-04T07:01:34.703Z,98682.53
2023-07-04T07:02:36.716Z,98681.00
2023-07-04T07:03:40.332Z,98673.94
2023-07-04T07:04:42.130Z,98682.53
2023-07-04T07:05:44.811Z,98685.94
2023-07-04T07:06:46.486Z,98686.72
2023-07-04T07:07:49.312Z,98685.94
2023-07-04T07:08:52.402Z,98681.03
2023-07-04T07:09:55.118Z,98681.28
2023-07-04T07:10:58.863Z,98677.22
2023-07-04T07:12:01.563Z,98688.59
2023-07-04T07:13:04.219Z,98683.50
2023-07-04T07:14:07.457Z,98690.63
2023-07-04T07:15:10.688Z,98683.50
2023-07-04T07:16:14.655Z,98683.06
2023-07-04T07:17:17.410Z,98686.72
2023-07-04T07:18:19.333Z,98679.13
2023-07-04T07:19:22.085Z,98689.91
2023-07-04T07:20:23.808Z,98673.47
2023-07-04T07:21:28.108Z,98679.84
2023-07-04T07:22:29.818Z,98683.31
2023-07-04T07:23:34.675Z,98684.84
2023-07-04T07:24:38.862Z,98682.34
2023-07-04T07:25:40.612Z,98688.50
2023-07-04T07:26:44.138Z,98681.66
2023-07-04T07:27:45.851Z,98682.59
2023-07-04T07:28:49.108Z,98686.09
2023-07-04T07:29:50.760Z,98685.31
2023-07-04T07:31:02.525Z,98684.25
2023-07-04T07:32:06.096Z,98678.88
2023-07-04T07:33:08.781Z,98678.88
2023-07-04T07:34:10.796Z,98687.66
2023-07-04T07:35:13.482Z,98685.06
2023-07-04T07:36:17.775Z,98684.31
2023-07-04T07:37:20.468Z,98690.63
2023-07-04T07:38:22.271Z,98683.91
2023-07-04T07:39:24.967Z,98688.34
2023-07-04T07:40:28.070Z,98685.75
2023-07-04T07:41:32.754Z,98682.53
2023-07-04T07:42:37.156Z,98683.88
2023-07-04T07:43:41.676Z,98686.84
2023-07-04T07:44:44.458Z,98683.75
2023-07-04T07:45:46.753Z,98695.13
2023-07-04T07:46:49.524Z,98687.41
2023-07-04T07:47:51.380Z,98694.59
2023-07-04T07:48:54.370Z,98691.38
2023-07-04T07:49:56.178Z,98694.22
2023-07-04T07:50:59.016Z,98692.66
2023-07-04T07:52:03.649Z,98696.25
2023-07-04T07:53:07.958Z,98683.34
2023-07-04T07:54:09.779Z,98690.38
2023-07-04T07:55:12.436Z,98686.03
2023-07-04T07:56:20.154Z,98681.81
2023-07-04T07:57:22.972Z,98686.28
2023-07-04T07:58:25.417Z,98689.13
2023-07-04T07:59:28.051Z,98687.41
2023-07-04T08:00:30.191Z,98684.97
2023-07-04T08:01:34.679Z,98681.50
2023-07-04T08:02:36.592Z,98687.81
2023-07-04T08:03:39.319Z,98687.91
2023-07-04T08:04:42.125Z,98686.44
2023-07-04T08:05:46.472Z,98681.31
2023-07-04T08:06:49.299Z,98679.75
2023-07-04T08:07:51.087Z,98671.38
2023-07-04T08:08:54.041Z,98672.47
2023-07-04T08:09:57.450Z,98673.44
2023-07-04T08:11:00.840Z,98671.06
2023-07-04T08:12:05.958Z,98671.28
2023-07-04T08:13:09.733Z,98672.28
2023-07-04T08:14:12.403Z,98671.56
2023-07-04T08:15:14.298Z,98677.66
2023-07-04T08:16:20.267Z,98682.59
2023-07-04T08:17:23.046Z,98677.09
2023-07-04T08:18:25.499Z,98683.09
2023-07-04T08:19:28.793Z,98676.91
2023-07-04T08:20:30.565Z,98677.88
2023-07-04T08:21:33.232Z,98664.88
2023-07-04T08:22:34.915Z,98682.44
2023-07-04T08:23:37.675Z,98670.34
2023-07-04T08:24:40.347Z,98672.28
2023-07-04T08:25:42.035Z,98668.06
2023-07-04T08:26:46.485Z,98673.34
2023-07-04T08:27:49.537Z,98674.22
2023-07-04T08:28:53.903Z,98674.31
2023-07-04T08:29:55.668Z,98665.66
2023-07-04T08:31:05.149Z,98667.66
2023-07-04T08:32:11.526Z,98677.47
2023-07-04T08:33:18.323Z,98669.69
2023-07-04T08:34:21.145Z,98678.66
2023-07-04T08:35:22.977Z,98676.78
2023-07-04T08:36:25.749Z,98675.09
2023-07-04T08:37:27.611Z,98680.41
2023-07-04T08:38:30.812Z,98678.72
2023-07-04T08:39:32.584Z,98677.78
2023-07-04T08:40:35.408Z,98673.44
2023-07-04T08:41:43.889Z,98684.63
2023-07-04T08:42:48.123Z,98679.13
2023-07-04T08:43:57.224Z,98682.56
2023-07-04T08:46:32.774Z,98671.28
2023-07-04T08:47:35.713Z,98672.28
2023-07-04T08:48:39.870Z,98682.09
2023-07-04T08:49:44.782Z,98675.47
2023-07-04T08:50:48.960Z,98678.13
2023-07-04T08:51:58.102Z,98682.72
2023-07-04T08:53:07.830Z,98678.78
2023-07-04T08:54:12.243Z,98672.88
2023-07-04T08:55:16.935Z,98660.91
2023-07-04T08:56:32.735Z,98666.25
2023-07-04T08:57:42.716Z,98670.72
2023-07-04T08:58:54.265Z,98670.03
2023-07-04T09:00:05.466Z,98671.97
2023-07-04T09:01:18.598Z,98669.22
2023-07-04T09:02:36.527Z,98668.53
2023-07-04T09:03:46.202Z,98667.84
2023-07-04T09:04:57.077Z,98660.06
2023-07-04T09:06:06.915Z,98680.97
2023-07-04T09:07:19.208Z,98675.75
2023-07-04T09:08:34.018Z,98675.06
2023-07-04T09:09:49.863Z,98667.63
2023-07-04T09:10:55.826Z,98673.16
2023-07-04T09:11:57.796Z,98671.56
2023-07-04T09:13:01.867Z,98671.75
2023-07-04T09:14:13.038Z,98664.78
2023-07-04T09:15:25.646Z,98658.75
2023-07-04T09:16:32.194Z,98662.00
2023-07-04T09:17:41.276Z,98666.53
2023-07-04T09:18:53.610Z,98660.75
2023-07-04T09:19:57.715Z,98664.47
2023-07-04T09:21:06.000Z,98661.91
2023-07-04T09:22:09.017Z,98660.00
2023-07-04T09:23:15.823Z,98666.94
2023-07-04T09:24:18.535Z,98663.44
2023-07-04T09:25:20.212Z,98662.78
2023-07-04T09:26:26.357Z,98661.97
2023-07-04T09:27:29.734Z,98667.16
2023-07-04T09:28:35.877Z,98662.06
2023-07-04T09:29:38.910Z,98662.28
2023-07-04T09:30:41.602Z,98667.72
2023-07-04T09:31:46.187Z,98662.69
2023-07-04T09:32:48.808Z,98662.59
2023-07-04T09:33:53.158Z,98664.25
2023-07-04T09:35:01.352Z,98667.03
2023-07-04T09:36:04.548Z,98659.34
2023-07-04T09:37:11.701Z,98665.66
2023-07-04T09:38:13.477Z,98654.22
2023-07-04T09:39:15.998Z,98659.19
2023-07-04T09:40:17.721Z,98666.09
2023-07-04T09:41:21.130Z,98660.91
2023-07-04T09:42:37.743Z,98655.84
2023-07-04T09:43:48.004Z,98661.44
2023-07-04T09:44:55.548Z,98655.56
2023-07-04T09:46:13.036Z,98660.19
2023-07-04T09:47:22.579Z,98662.22
2023-07-04T09:48:26.423Z,98662.34
2023-07-04T09:49:29.863Z,98656.22
2023-07-04T09:50:34.160Z,98657.81
2023-07-04T09:51:35.933Z,98650.84
2023-07-04T09:52:39.477Z,98653.47
2023-07-04T09:53:41.147Z,98649.06
2023-07-04T09:54:44.723Z,98642.72
2023-07-04T09:55:58.691Z,98650.56
2023-07-04T09:57:18.161Z,98656.78
2023-07-04T09:58:22.379Z,98660.38
2023-07-04T09:59:27.929Z,98648.22
2023-07-04T10:00:30.883Z,98653.19
2023-07-04T10:01:34.329Z,98656.47
2023-07-04T10:02:36.279Z,98647.78
2023-07-04T10:03:40.018Z,98645.97
2023-07-04T10:04:42.221Z,98658.19
2023-07-04T10:05:49.949Z,98653.13
2023-07-04T10:06:53.835Z,98645.19
2023-07-04T10:08:02.852Z,98648.81
2023-07-04T10:09:19.153Z,98649.00
2023-07-04T10:10:22.083Z,98653.53
2023-07-04T10:11:26.060Z,98651.06
2023-07-04T10:12:33.543Z,98645.88
2023-07-04T10:13:40.473Z,98650.38
2023-07-04T10:14:47.030Z,98645.19
2023-07-04T10:15:51.860Z,98643.50
2023-07-04T10:16:53.579Z,98648.78
2023-07-04T10:17:56.403Z,98646.16
2023-07-04T10:19:04.896Z,98639.22
2023-07-04T10:20:13.262Z,98638.44
2023-07-04T10:21:14.975Z,98638.47
2023-07-04T10:22:25.682Z,98646.34
2023-07-04T10:23:30.545Z,98647.34
2023-07-04T10:24:34.694Z,98637.72
2023-07-04T10:25:37.702Z,98634.38
2023-07-04T10:26:39.464Z,98640.50
2023-07-04T10:27:44.734Z,98638.75
2023-07-04T10:28:48.960Z,98633.50
2023-07-04T10:29:56.322Z,98632.81
2023-07-04T10:31:03.158Z,98634.72
2023-07-04T10:32:10.910Z,98647.06
2023-07-04T10:33:19.618Z,98633.00
2023-07-04T10:34:23.430Z,98626.63
2023-07-04T10:35:28.760Z,98624.69
2023-07-04T10:36:33.932Z,98638.59
2023-07-04T10:37:38.901Z,98630.78
2023-07-04T10:38:45.913Z,98634.31
2023-07-04T10:39:48.316Z,98630.09
2023-07-04T10:40:52.431Z,98627.59
2023-07-04T10:41:59.131Z,98630.34
2023-07-04T10:43:05.385Z,98630.41
2023-07-04T10:44:13.029Z,98634.88
2023-07-04T10:45:19.316Z,98637.50
2023-07-04T10:46:26.246Z,98624.25
2023-07-04T10:47:33.345Z,98628.69
2023-07-04T10:48:35.580Z,98627.03
2023-07-04T10:49:45.256Z,98625.97
2023-07-04T10:50:53.022Z,98621.50
2023-07-04T10:52:03.817Z,98625.84
2023-07-04T10:53:05.658Z,98624.97
2023-07-04T10:54:10.255Z,98623.19
2023-07-04T10:55:16.951Z,98612.75
2023-07-04T10:56:25.223Z,98616.41
2023-07-04T10:57:33.936Z,98614.75
2023-07-04T10:58:41.869Z,98615.53
2023-07-04T10:59:45.870Z,98612.84
2023-07-04T11:00:54.563Z,98618.03
2023-07-04T11:02:04.345Z,98620.78
2023-07-04T11:03:12.370Z,98618.28
2023-07-04T11:04:21.340Z,98615.81
2023-07-04T11:05:29.995Z,98616.94
2023-07-04T11:06:39.819Z,98613.63
2023-07-04T11:07:44.012Z,98615.44
2023-07-04T11:08:50.665Z,98615.53
2023-07-04T11:09:55.714Z,98613.81
2023-07-04T11:11:01.337Z,98614.84
2023-07-04T11:12:06.869Z,98611.44
2023-07-04T11:13:14.721Z,98610.63
2023-07-04T11:14:32.929Z,98606.19
2023-07-04T11:15:37.553Z,98609.78
2023-07-04T11:16:45.833Z,98605.47
2023-07-04T11:17:50.063Z,98608.03
2023-07-04T11:19:04.817Z,98595.94
2023-07-04T11:20:12.417Z,98603.03
2023-07-04T11:21:16.766Z,98602.78
2023-07-04T11:22:19.466Z,98605.09
2023-07-04T11:23:23.955Z,98599.84
2023-07-04T11:24:26.643Z,98602.66
2023-07-04T11:25:33.293Z,98589.69
2023-07-04T11:26:50.810Z,98602.13
2023-07-04T11:28:16.225Z,98596.91
2023-07-04T11:29:21.006Z,98595.03
2023-07-04T11:30:34.600Z,98596.63
2023-07-04T11:32:10.070Z,98596.63
2023-07-04T11:33:34.585Z,98596.75
2023-07-04T11:34:44.595Z,98590.72
2023-07-04T11:35:46.621Z,98596.06
2023-07-04T11:36:56.463Z,98591.81
2023-07-04T11:38:07.461Z,98602.50
2023-07-04T11:39:30.854Z,98594.66
2023-07-04T11:40:43.630Z,98585.94
2023-07-04T11:41:45.612Z,98596.63
2023-07-04T11:42:52.699Z,98597.50
2023-07-04T11:43:55.892Z,98598.13
2023-07-04T11:45:02.471Z,98597.09
2023-07-04T11:46:04.417Z,98609.19
2023-07-04T11:47:11.064Z,98591.63
2023-07-04T11:48:18.647Z,98591.53
2023-07-04T11:49:21.700Z,98581.72
2023-07-04T11:50:34.208Z,98604.63
2023-07-04T11:51:36.882Z,98596.84
2023-07-04T11:52:43.979Z,98600.41
2023-07-04T11:54:13.501Z,98604.06
2023-07-04T11:55:18.925Z,98606.00
2023-07-04T11:56:36.150Z,98597.31
2023-07-04T11:58:00.112Z,98592.88
2023-07-04T11:59:28.165Z,98596.38
2023-07-04T12:00:57.537Z,98598.97
2023-07-04T12:02:09.075Z,98594.41
2023-07-04T12:03:38.786Z,98598.03
2023-07-04T12:04:50.378Z,98597.22
2023-07-04T12:05:55.126Z,98582.47
2023-07-04T12:07:04.487Z,98579.00
2023-07-04T12:08:14.811Z,98581.75
2023-07-04T12:09:24.839Z,98580.06
2023-07-04T12:10:31.990Z,98579.88
2023-07-04T12:11:43.304Z,98585.16
2023-07-04T12:12:47.190Z,98579.88
2023-07-04T12:13:50.518Z,98581.69
2023-07-04T12:15:02.018Z,98578.19
2023-07-04T12:16:05.176Z,98587.94
2023-07-04T12:17:08.954Z,98583.69
2023-07-04T12:18:17.942Z,98572.25
2023-07-04T12:19:22.829Z,98572.25
2023-07-04T12:20:29.573Z,98569.66
2023-07-04T12:21:33.634Z,98574.09
2023-07-04T12:22:36.776Z,98579.34
2023-07-04T12:23:38.387Z,98580.31
2023-07-04T12:24:41.095Z,98572.34
2023-07-04T12:25:45.088Z,98574.84
2023-07-04T12:26:54.466Z,98575.72
2023-07-04T12:28:03.803Z,98572.22
2023-07-04T12:29:16.454Z,98567.06
2023-07-04T12:30:20.853Z,98567.06
2023-07-04T12:32:29.638Z,98566.03
2023-07-04T12:33:35.244Z,98581.75
2023-07-04T12:35:47.677Z,98585.25
2023-07-04T12:38:04.904Z,98571.81
2023-07-04T12:39:08.478Z,98576.09
2023-07-04T12:40:17.252Z,98567.28
2023-07-04T12:41:23.046Z,98570.81
2023-07-04T12:42:30.136Z,98563.84
2023-07-04T12:44:41.850Z,98565.31
2023-07-04T12:50:14.746Z,98567.09
2023-07-04T12:51:22.614Z,98572.44
2023-07-04T12:52:30.678Z,98577.84
2023-07-04T12:53:33.977Z,98565.63
2023-07-04T12:54:36.255Z,98565.63
2023-07-04T12:55:40.881Z,98567.38
2023-07-04T12:56:45.614Z,98566.53
2023-07-04T12:57:50.069Z,98560.47
2023-07-04T12:58:51.744Z,98544.81
2023-07-04T12:59:54.572Z,98550.13
2023-07-04T13:01:04.299Z,98555.16
2023-07-04T13:02:16.585Z,98561.09
2023-07-04T13:03:20.235Z,98563.50
2023-07-04T13:04:22.580Z,98554.66
2023-07-04T13:05:27.997Z,98551.94
2023-07-04T13:06:31.324Z,98556.25
2023-07-04T13:07:34.965Z,98550.91
2023-07-04T13:08:44.844Z,98545.72
2023-07-04T13:09:48.362Z,98547.47
2023-07-04T13:10:53.819Z,98546.63
2023-07-04T13:11:56.134Z,98542.22
2023-07-04T13:12:59.228Z,98549.28
2023-07-04T13:14:06.788Z,98537.88
2023-07-04T13:15:13.283Z,98535.22
2023-07-04T13:16:22.143Z,98536.28
2023-07-04T13:17:26.877Z,98544.16
2023-07-04T13:18:34.782Z,98526.81
2023-07-04T13:19:40.886Z,98533.03
2023-07-04T13:20:56.842Z,98528.78
2023-07-04T13:22:13.585Z,98532.38
2023-07-04T13:25:42.697Z,98532.41
2023-07-04T13:26:45.697Z,98532.47
2023-07-04T13:27:49.181Z,98530.75
2023-07-04T13:33:40.158Z,98530.06
2023-07-04T13:34:42.935Z,98522.16
2023-07-04T13:35:44.951Z,98523.84
2023-07-04T13:36:50.057Z,98523.75
2023-07-04T13:40:05.382Z,98520.97
2023-07-04T13:41:08.676Z,98521.94
2023-07-04T13:42:11.926Z,98509.72
2023-07-04T13:45:27.625Z,98509.94
2023-07-04T13:46:30.924Z,98493.22
2023-07-04T13:47:33.104Z,98508.16
2023-07-04T13:48:36.298Z,98508.25
2023-07-04T13:49:38.424Z,98509.13
2023-07-04T13:50:41.809Z,98494.22
2023-07-04T13:51:45.849Z,98501.34
2023-07-04T13:52:53.423Z,98504.88
2023-07-04T13:54:09.739Z,98510.13
2023-07-04T13:55:12.791Z,98508.41
2023-07-04T13:56:15.851Z,98510.13
2023-07-04T13:57:17.889Z,98506.66
2023-07-04T13:58:21.853Z,98500.50
2023-07-04T13:59:23.760Z,98505.72
2023-07-04T14:00:38.648Z,98496.06
2023-07-04T14:06:13.495Z,98486.31
2023-07-04T14:07:15.708Z,98494.25
2023-07-04T14:08:18.751Z,98497.78
2023-07-04T14:09:23.157Z,98489.84
2023-07-04T14:10:34.368Z,98496.91
2023-07-04T14:11:36.805Z,98492.47
2023-07-04T14:12:40.782Z,98486.34
2023-07-04T14:13:43.379Z,98485.47
2023-07-04T14:20:18.071Z,98476.78
2023-07-04T14:21:21.875Z,98477.63
2023-07-04T14:22:25.129Z,98486.41
2023-07-04T14:23:27.207Z,98482.91
2023-07-04T14:24:31.337Z,98478.47
2023-07-04T14:25:35.527Z,98480.22
2023-07-04T14:26:38.342Z,98481.94
2023-07-04T14:27:40.497Z,98480.09
2023-07-04T14:28:43.441Z,98477.38
2023-07-04T14:29:45.380Z,98488.72
2023-07-04T14:30:48.444Z,98479.84
2023-07-04T14:31:51.034Z,98481.59
2023-07-04T14:32:54.377Z,98482.47
2023-07-04T14:33:59.132Z,98486.91
2023-07-04T14:35:02.375Z,98481.69
2023-07-04T14:36:04.905Z,98476.47
2023-07-04T14:37:07.923Z,98477.31
2023-07-04T14:38:09.956Z,98476.31
2023-07-04T14:39:13.398Z,98472.75
2023-07-04T14:43:33.536Z,98475.97
2023-07-04T14:44:35.576Z,98472.41
2023-07-04T14:45:38.479Z,98475.06
2023-07-04T14:46:40.620Z,98472.41
2023-07-04T14:47:43.881Z,98469.03
2023-07-04T14:48:45.901Z,98465.59
2023-07-04T14:49:48.833Z,98453.31
2023-07-04T14:51:00.387Z,98452.47
2023-07-04T14:52:03.343Z,98456.09
2023-07-04T14:53:05.276Z,98461.44
2023-07-04T14:54:08.739Z,98458.03
2023-07-04T14:55:11.054Z,98452.00
2023-07-04T14:56:16.951Z,98456.44
2023-07-04T14:57:19.107Z,98453.84
2023-07-04T14:58:22.009Z,98454.72
2023-07-04T14:59:23.848Z,98450.38
2023-07-04T15:00:40.252Z,98452.19
2023-07-04T15:01:42.378Z,98452.16
2023-07-04T15:02:49.643Z,98450.44
2023-07-04T15:03:51.782Z,98453.03
2023-07-04T15:04:54.650Z,98448.66
2023-07-04T15:05:58.815Z,98453.91
2023-07-04T15:07:03.292Z,98455.69
2023-07-04T15:08:05.406Z,98454.81
2023-07-04T15:09:08.364Z,98453.91
2023-07-04T15:10:11.092Z,98451.25
2023-07-04T15:11:15.528Z,98445.13
2023-07-04T15:12:17.546Z,98443.38
2023-07-04T15:13:20.932Z,98446.00
2023-07-04T15:14:23.240Z,98442.47
2023-07-04T15:15:26.067Z,98441.59
2023-07-04T15:16:28.148Z,98439.81
2023-07-04T15:17:31.795Z,98444.22
2023-07-04T15:18:35.682Z,98436.22
2023-07-04T15:19:38.560Z,98428.28
2023-07-04T15:20:40.454Z,98434.41
2023-07-04T15:21:43.263Z,98432.66
2023-07-04T15:22:47.599Z,98429.13
2023-07-04T15:23:50.689Z,98423.81
2023-07-04T15:24:52.712Z,98431.75
2023-07-04T15:26:10.831Z,98429.09
2023-07-04T15:27:21.346Z,98431.75
2023-07-04T15:28:24.853Z,98429.97
2023-07-04T15:29:26.877Z,98420.28
2023-07-04T15:30:29.871Z,98420.28
2023-07-04T15:31:32.061Z,98425.53
2023-07-04T15:32:35.615Z,98424.69
2023-07-04T15:33:37.618Z,98428.19
2023-07-04T15:34:41.667Z,98423.81
2023-07-04T15:35:45.210Z,98425.53
2023-07-04T15:37:06.093Z,98418.50
2023-07-04T15:38:07.958Z,98418.53
2023-07-04T15:39:10.860Z,98420.28
2023-07-04T15:40:13.205Z,98412.34
2023-07-04T15:41:17.722Z,98409.72
2023-07-04T15:42:21.139Z,98413.25
2023-07-04T15:43:25.299Z,98415.94
2023-07-04T15:44:28.299Z,98417.66
2023-07-04T15:45:33.150Z,98419.47
2023-07-04T15:46:35.022Z,98429.22
2023-07-04T15:47:38.014Z,98419.56
2023-07-04T15:48:42.070Z,98422.25
2023-07-04T15:49:45.177Z,98416.09
2023-07-04T15:50:47.200Z,98427.50
2023-07-04T15:51:55.314Z,98430.13
2023-07-04T15:52:57.268Z,98416.94
2023-07-04T15:54:00.078Z,98418.75
2023-07-04T15:55:01.956Z,98411.69
2023-07-04T15:56:07.285Z,98412.59
2023-07-04T15:57:09.202Z,98410.84
2023-07-04T15:58:13.527Z,98415.22
2023-07-04T15:59:15.563Z,98408.19
2023-07-04T16:00:19.523Z,98406.44
2023-07-04T16:01:22.561Z,98406.41
2023-07-04T16:02:24.728Z,98408.16
2023-07-04T16:03:29.231Z,98409.91
2023-07-04T16:04:32.169Z,98405.50
2023-07-04T16:05:37.929Z,98406.38
2023-07-04T16:06:42.004Z,98398.50
2023-07-04T16:07:45.064Z,98401.09
2023-07-04T16:08:47.862Z,98400.19
2023-07-04T16:09:52.548Z,98394.06
2023-07-04T16:10:55.467Z,98401.09
2023-07-04T16:11:58.394Z,98399.34
2023-07-04T16:13:00.340Z,98399.38
2023-07-04T16:14:04.579Z,98401.13
2023-07-04T16:15:07.472Z,98398.47
2023-07-04T16:16:11.547Z,98401.09
2023-07-04T16:17:14.501Z,98402.84
2023-07-04T16:18:17.776Z,98396.66
2023-07-04T16:19:20.503Z,98393.13
2023-07-04T16:20:25.093Z,98399.25
2023-07-04T16:21:29.320Z,98390.50
2023-07-04T16:22:31.471Z,98394.97
2023-07-04T16:23:35.493Z,98399.38
2023-07-04T16:24:38.070Z,98392.34
2023-07-04T16:25:43.117Z,98389.69
2023-07-04T16:26:45.901Z,98393.22
2023-07-04T16:27:50.138Z,98386.19
2023-07-04T16:28:53.937Z,98391.47
2023-07-04T16:29:59.273Z,98393.25
2023-07-04T16:31:05.632Z,98389.69
2023-07-04T16:32:09.432Z,98390.56
2023-07-04T16:33:13.968Z,98393.22
2023-07-04T16:34:16.906Z,98387.03
2023-07-04T16:35:19.015Z,98383.50
2023-07-04T16:36:22.239Z,98383.47
2023-07-04T16:37:24.234Z,98379.09
2023-07-04T16:38:28.561Z,98379.00
2023-07-04T16:39:31.189Z,98372.81
2023-07-04T16:40:34.948Z,98376.34
2023-07-04T16:41:38.039Z,98386.00
2023-07-04T16:42:41.923Z,98378.06
2023-07-04T16:43:44.267Z,98381.56
2023-07-04T16:44:47.650Z,98373.66
2023-07-04T16:45:52.880Z,98377.16
2023-07-04T16:46:56.752Z,98372.75
2023-07-04T16:48:02.262Z,98379.81
2023-07-04T16:49:05.885Z,98372.84
2023-07-04T16:50:21.266Z,98368.44
2023-07-04T16:51:31.613Z,98363.22
2023-07-04T16:52:33.471Z,98369.41
2023-07-04T16:53:36.610Z,98364.16
2023-07-04T16:54:38.504Z,98367.69
2023-07-04T16:55:41.534Z,98362.44
2023-07-04T16:56:43.649Z,98365.03
2023-07-04T16:57:46.466Z,98361.53
2023-07-04T16:58:48.388Z,98365.09
2023-07-04T16:59:51.173Z,98362.44
2023-07-04T17:00:55.405Z,98362.41
2023-07-04T17:02:00.171Z,98361.53
2023-07-04T17:03:02.954Z,98358.91
2023-07-04T17:04:06.158Z,98359.78
2023-07-04T17:05:08.813Z,98354.50
2023-07-04T17:06:12.104Z,98356.22
2023-07-04T17:07:14.017Z,98355.34